sensor_id;sensor_type;location;lat;lon;timestamp;temperature;humidity
2639;DHT22;1329;51.384;7.122;2023-03-14T00:01:57;12.80;99.90
2639;DHT22;1329;51.384;7.122;2023-03-14T00:04:26;12.80;99.90
2639;DHT22;1329;51.384;7.122;2023-03-14T00:06:57;12.80;99.90
2639;DHT22;1329;51.384;7.122;2023-03-14T00:09:27;12.70;99.90
2639;DHT22;1329;51.384;7.122;2023-03-14T00:11:57;12.70;99.90
2639;DHT22;1329;51.384;7.122;2023-03-14T00:14:29;12.70;99.90
2639;DHT22;1329;51.384;7.122;2023-03-14T00:17:05;12.70;99.90
2639;DHT22;1329;51.384;7.122;2023-03-14T00:19:37;12.70;99.90
2639;DHT22;1329;51.384;7.122;2023-03-14T00:22:05;12.70;99.90
2639;DHT22;1329;51.384;7.122;2023-03-14T00:24:36;12.70;99.90
2639;DHT22;1329;51.384;7.122;2023-03-14T00:27:07;12.70;99.90
2639;DHT22;1329;51.384;7.122;2023-03-14T00:29:38;12.60;99.90
2639;DHT22;1329;51.384;7.122;2023-03-14T00:32:15;12.60;99.90
2639;DHT22;1329;51.384;7.122;2023-03-14T00:34:50;12.60;99.90
2639;DHT22;1329;51.384;7.122;2023-03-14T00:37:19;12.50;99.90
2639;DHT22;1329;51.384;7.122;2023-03-14T00:39:51;12.60;99.90
2639;DHT22;1329;51.384;7.122;2023-03-14T00:42:24;12.60;99.90
2639;DHT22;1329;51.384;7.122;2023-03-14T00:44:53;12.60;99.90
2639;DHT22;1329;51.384;7.122;2023-03-14T00:47:24;12.60;99.90
2639;DHT22;1329;51.384;7.122;2023-03-14T00:50:08;12.60;99.90
2639;DHT22;1329;51.384;7.122;2023-03-14T00:52:50;12.70;99.90
2639;DHT22;1329;51.384;7.122;2023-03-14T00:55:18;12.70;99.90
2639;DHT22;1329;51.384;7.122;2023-03-14T00:57:48;12.80;99.90
2639;DHT22;1329;51.384;7.122;2023-03-14T01:00:18;12.80;99.90
2639;DHT22;1329;51.384;7.122;2023-03-14T01:03:01;12.90;99.90
2639;DHT22;1329;51.384;7.122;2023-03-14T01:05:37;12.80;99.90
2639;DHT22;1329;51.384;7.122;2023-03-14T01:08:15;12.70;99.90
2639;DHT22;1329;51.384;7.122;2023-03-14T01:10:50;12.60;99.90
2639;DHT22;1329;51.384;7.122;2023-03-14T01:13:24;12.40;99.90
2639;DHT22;1329;51.384;7.122;2023-03-14T01:16:00;12.30;99.90
2639;DHT22;1329;51.384;7.122;2023-03-14T01:18:42;12.10;99.90
2639;DHT22;1329;51.384;7.122;2023-03-14T01:21:19;12.00;99.90
2639;DHT22;1329;51.384;7.122;2023-03-14T01:23:48;11.90;99.90
2639;DHT22;1329;51.384;7.122;2023-03-14T01:26:22;11.80;99.90
2639;DHT22;1329;51.384;7.122;2023-03-14T01:28:59;11.70;99.90
2639;DHT22;1329;51.384;7.122;2023-03-14T01:31:30;11.70;99.90
2639;DHT22;1329;51.384;7.122;2023-03-14T01:34:07;11.70;99.90
2639;DHT22;1329;51.384;7.122;2023-03-14T01:36:36;11.60;99.90
2639;DHT22;1329;51.384;7.122;2023-03-14T01:39:07;11.50;99.90
2639;DHT22;1329;51.384;7.122;2023-03-14T01:41:40;11.50;99.90
2639;DHT22;1329;51.384;7.122;2023-03-14T01:44:10;11.50;99.90
2639;DHT22;1329;51.384;7.122;2023-03-14T01:46:52;11.50;99.90
2639;DHT22;1329;51.384;7.122;2023-03-14T01:49:26;11.50;99.90
2639;DHT22;1329;51.384;7.122;2023-03-14T01:52:06;11.40;99.90
2639;DHT22;1329;51.384;7.122;2023-03-14T01:54:37;11.40;99.90
2639;DHT22;1329;51.384;7.122;2023-03-14T01:57:10;11.40;99.90
2639;DHT22;1329;51.384;7.122;2023-03-14T01:59:46;11.40;99.90
2639;DHT22;1329;51.384;7.122;2023-03-14T02:02:17;11.40;99.90
2639;DHT22;1329;51.384;7.122;2023-03-14T02:04:48;11.40;99.90
2639;DHT22;1329;51.384;7.122;2023-03-14T02:07:19;11.30;99.90
2639;DHT22;1329;51.384;7.122;2023-03-14T02:09:51;11.30;99.90
2639;DHT22;1329;51.384;7.122;2023-03-14T02:12:20;11.30;99.90
2639;DHT22;1329;51.384;7.122;2023-03-14T02:14:48;11.30;99.90
2639;DHT22;1329;51.384;7.122;2023-03-14T02:17:16;11.30;99.90
2639;DHT22;1329;51.384;7.122;2023-03-14T02:19:59;11.30;99.90
2639;DHT22;1329;51.384;7.122;2023-03-14T02:22:35;11.30;99.90
2639;DHT22;1329;51.384;7.122;2023-03-14T02:25:08;11.20;99.90
2639;DHT22;1329;51.384;7.122;2023-03-14T02:27:40;11.30;99.90
2639;DHT22;1329;51.384;7.122;2023-03-14T02:30:09;11.20;99.90
2639;DHT22;1329;51.384;7.122;2023-03-14T02:32:40;11.20;99.90
2639;DHT22;1329;51.384;7.122;2023-03-14T02:35:12;11.30;99.90
2639;DHT22;1329;51.384;7.122;2023-03-14T02:37:45;11.30;99.90
2639;DHT22;1329;51.384;7.122;2023-03-14T02:40:16;11.30;99.90
2639;DHT22;1329;51.384;7.122;2023-03-14T02:42:44;11.30;99.90
2639;DHT22;1329;51.384;7.122;2023-03-14T02:45:35;11.30;99.90
2639;DHT22;1329;51.384;7.122;2023-03-14T02:48:07;11.30;99.90
2639;DHT22;1329;51.384;7.122;2023-03-14T02:50:38;11.30;99.90
2639;DHT22;1329;51.384;7.122;2023-03-14T02:53:05;11.30;99.90
2639;DHT22;1329;51.384;7.122;2023-03-14T02:55:33;11.30;99.90
2639;DHT22;1329;51.384;7.122;2023-03-14T02:58:02;11.30;99.90
2639;DHT22;1329;51.384;7.122;2023-03-14T03:00:29;11.30;99.90
2639;DHT22;1329;51.384;7.122;2023-03-14T03:02:57;11.30;99.90
2639;DHT22;1329;51.384;7.122;2023-03-14T03:05:24;11.30;99.90
2639;DHT22;1329;51.384;7.122;2023-03-14T03:07:51;11.30;99.90
2639;DHT22;1329;51.384;7.122;2023-03-14T03:10:19;11.30;99.90
2639;DHT22;1329;51.384;7.122;2023-03-14T03:12:46;11.30;99.90
2639;DHT22;1329;51.384;7.122;2023-03-14T03:15:15;11.30;99.90
2639;DHT22;1329;51.384;7.122;2023-03-14T03:17:43;11.30;99.90
2639;DHT22;1329;51.384;7.122;2023-03-14T03:20:10;11.30;99.90
2639;DHT22;1329;51.384;7.122;2023-03-14T03:22:41;11.30;99.90
2639;DHT22;1329;51.384;7.122;2023-03-14T03:25:10;11.20;99.90
2639;DHT22;1329;51.384;7.122;2023-03-14T03:27:38;11.20;99.90
2639;DHT22;1329;51.384;7.122;2023-03-14T03:30:06;11.20;99.90
2639;DHT22;1329;51.384;7.122;2023-03-14T03:32:36;11.20;99.90
2639;DHT22;1329;51.384;7.122;2023-03-14T03:35:04;11.30;99.90
2639;DHT22;1329;51.384;7.122;2023-03-14T03:37:32;11.20;99.90
2639;DHT22;1329;51.384;7.122;2023-03-14T03:40:00;11.20;99.90
2639;DHT22;1329;51.384;7.122;2023-03-14T03:42:33;11.20;99.90
2639;DHT22;1329;51.384;7.122;2023-03-14T03:45:03;11.20;99.90
2639;DHT22;1329;51.384;7.122;2023-03-14T03:47:31;11.20;99.90
2639;DHT22;1329;51.384;7.122;2023-03-14T03:49:59;11.20;99.90
2639;DHT22;1329;51.384;7.122;2023-03-14T03:52:29;11.30;99.90
2639;DHT22;1329;51.384;7.122;2023-03-14T03:55:03;11.30;99.90
2639;DHT22;1329;51.384;7.122;2023-03-14T03:57:36;11.30;99.90
2639;DHT22;1329;51.384;7.122;2023-03-14T04:00:05;11.20;99.90
2639;DHT22;1329;51.384;7.122;2023-03-14T04:02:37;11.30;99.90
2639;DHT22;1329;51.384;7.122;2023-03-14T04:05:12;11.30;99.90
2639;DHT22;1329;51.384;7.122;2023-03-14T04:07:59;11.20;99.90
2639;DHT22;1329;51.384;7.122;2023-03-14T04:10:34;11.20;99.90
2639;DHT22;1329;51.384;7.122;2023-03-14T04:13:10;11.20;99.90
2639;DHT22;1329;51.384;7.122;2023-03-14T04:15:39;11.20;99.90
2639;DHT22;1329;51.384;7.122;2023-03-14T04:18:06;11.20;99.90
2639;DHT22;1329;51.384;7.122;2023-03-14T04:20:35;11.20;99.90
2639;DHT22;1329;51.384;7.122;2023-03-14T04:23:09;11.20;99.90
2639;DHT22;1329;51.384;7.122;2023-03-14T04:25:41;11.10;99.90
2639;DHT22;1329;51.384;7.122;2023-03-14T04:28:08;11.10;99.90
2639;DHT22;1329;51.384;7.122;2023-03-14T04:30:40;11.10;99.90
2639;DHT22;1329;51.384;7.122;2023-03-14T04:33:13;11.10;99.90
2639;DHT22;1329;51.384;7.122;2023-03-14T04:35:46;11.10;99.90
2639;DHT22;1329;51.384;7.122;2023-03-14T04:38:13;11.10;99.90
2639;DHT22;1329;51.384;7.122;2023-03-14T04:40:53;11.10;99.90
2639;DHT22;1329;51.384;7.122;2023-03-14T04:43:26;11.10;99.90
2639;DHT22;1329;51.384;7.122;2023-03-14T04:46:08;11.10;99.90
2639;DHT22;1329;51.384;7.122;2023-03-14T04:48:39;11.10;99.90
2639;DHT22;1329;51.384;7.122;2023-03-14T04:51:10;11.10;99.90
2639;DHT22;1329;51.384;7.122;2023-03-14T04:53:40;11.10;99.90
2639;DHT22;1329;51.384;7.122;2023-03-14T04:56:08;11.10;99.90
2639;DHT22;1329;51.384;7.122;2023-03-14T04:58:38;11.10;99.90
2639;DHT22;1329;51.384;7.122;2023-03-14T05:01:10;11.10;99.90
2639;DHT22;1329;51.384;7.122;2023-03-14T05:03:37;11.10;99.90
2639;DHT22;1329;51.384;7.122;2023-03-14T05:06:05;11.10;99.90
2639;DHT22;1329;51.384;7.122;2023-03-14T05:08:34;11.00;99.90
2639;DHT22;1329;51.384;7.122;2023-03-14T05:11:01;11.00;99.90
2639;DHT22;1329;51.384;7.122;2023-03-14T05:13:29;10.90;99.90
2639;DHT22;1329;51.384;7.122;2023-03-14T05:16:04;10.90;99.90
2639;DHT22;1329;51.384;7.122;2023-03-14T05:18:32;10.80;99.90
2639;DHT22;1329;51.384;7.122;2023-03-14T05:21:00;10.80;99.90
2639;DHT22;1329;51.384;7.122;2023-03-14T05:23:37;10.70;99.90
2639;DHT22;1329;51.384;7.122;2023-03-14T05:26:16;10.70;99.90
2639;DHT22;1329;51.384;7.122;2023-03-14T05:28:51;10.70;99.90
2639;DHT22;1329;51.384;7.122;2023-03-14T05:31:19;10.70;99.90
2639;DHT22;1329;51.384;7.122;2023-03-14T05:33:56;10.70;99.90
2639;DHT22;1329;51.384;7.122;2023-03-14T05:36:39;10.70;99.90
2639;DHT22;1329;51.384;7.122;2023-03-14T05:39:19;10.70;99.90
2639;DHT22;1329;51.384;7.122;2023-03-14T05:41:59;10.70;99.90
2639;DHT22;1329;51.384;7.122;2023-03-14T05:44:39;10.70;99.90
2639;DHT22;1329;51.384;7.122;2023-03-14T05:47:08;10.70;99.90
2639;DHT22;1329;51.384;7.122;2023-03-14T05:49:35;10.70;99.90
2639;DHT22;1329;51.384;7.122;2023-03-14T05:52:02;10.70;99.90
2639;DHT22;1329;51.384;7.122;2023-03-14T05:54:35;10.70;99.90
2639;DHT22;1329;51.384;7.122;2023-03-14T05:57:03;10.70;99.90
2639;DHT22;1329;51.384;7.122;2023-03-14T05:59:31;10.70;99.90
2639;DHT22;1329;51.384;7.122;2023-03-14T06:02:01;10.70;99.90
2639;DHT22;1329;51.384;7.122;2023-03-14T06:04:35;10.70;99.90
2639;DHT22;1329;51.384;7.122;2023-03-14T06:07:02;10.70;99.90
2639;DHT22;1329;51.384;7.122;2023-03-14T06:09:29;10.80;99.90
2639;DHT22;1329;51.384;7.122;2023-03-14T06:12:01;10.80;99.90
2639;DHT22;1329;51.384;7.122;2023-03-14T06:14:32;10.80;99.90
2639;DHT22;1329;51.384;7.122;2023-03-14T06:17:00;10.90;99.90
2639;DHT22;1329;51.384;7.122;2023-03-14T06:19:35;10.90;99.90
2639;DHT22;1329;51.384;7.122;2023-03-14T06:22:06;10.90;99.90
2639;DHT22;1329;51.384;7.122;2023-03-14T06:24:34;10.90;99.90
2639;DHT22;1329;51.384;7.122;2023-03-14T06:27:03;10.90;99.90
2639;DHT22;1329;51.384;7.122;2023-03-14T06:29:30;10.90;99.90
2639;DHT22;1329;51.384;7.122;2023-03-14T06:31:59;11.00;99.90
2639;DHT22;1329;51.384;7.122;2023-03-14T06:34:26;11.00;99.90
2639;DHT22;1329;51.384;7.122;2023-03-14T06:36:54;11.00;99.90
2639;DHT22;1329;51.384;7.122;2023-03-14T06:39:22;11.00;99.90
2639;DHT22;1329;51.384;7.122;2023-03-14T06:41:49;11.00;99.90
2639;DHT22;1329;51.384;7.122;2023-03-14T06:44:28;11.00;99.90
2639;DHT22;1329;51.384;7.122;2023-03-14T06:46:59;11.00;99.90
2639;DHT22;1329;51.384;7.122;2023-03-14T06:49:26;11.10;99.90
2639;DHT22;1329;51.384;7.122;2023-03-14T06:51:54;11.10;99.90
2639;DHT22;1329;51.384;7.122;2023-03-14T06:54:24;11.10;99.90
2639;DHT22;1329;51.384;7.122;2023-03-14T06:56:51;11.10;99.90
2639;DHT22;1329;51.384;7.122;2023-03-14T06:59:19;11.10;99.90
2639;DHT22;1329;51.384;7.122;2023-03-14T07:01:48;11.10;99.90
2639;DHT22;1329;51.384;7.122;2023-03-14T07:04:16;11.20;99.90
2639;DHT22;1329;51.384;7.122;2023-03-14T07:06:45;11.20;99.90
2639;DHT22;1329;51.384;7.122;2023-03-14T07:09:15;11.30;99.90
2639;DHT22;1329;51.384;7.122;2023-03-14T07:11:44;11.20;99.90
2639;DHT22;1329;51.384;7.122;2023-03-14T07:14:11;11.30;99.90
2639;DHT22;1329;51.384;7.122;2023-03-14T07:16:39;11.30;99.90
2639;DHT22;1329;51.384;7.122;2023-03-14T07:19:07;11.30;99.90
2639;DHT22;1329;51.384;7.122;2023-03-14T07:21:36;11.30;99.90
2639;DHT22;1329;51.384;7.122;2023-03-14T07:24:08;11.30;99.90
2639;DHT22;1329;51.384;7.122;2023-03-14T07:26:41;11.30;99.90
2639;DHT22;1329;51.384;7.122;2023-03-14T07:29:10;11.40;99.90
2639;DHT22;1329;51.384;7.122;2023-03-14T07:31:37;11.40;99.90
2639;DHT22;1329;51.384;7.122;2023-03-14T07:34:07;11.40;99.90
2639;DHT22;1329;51.384;7.122;2023-03-14T07:36:35;11.40;99.90
2639;DHT22;1329;51.384;7.122;2023-03-14T07:39:08;11.50;99.90
2639;DHT22;1329;51.384;7.122;2023-03-14T07:41:38;11.50;99.90
2639;DHT22;1329;51.384;7.122;2023-03-14T07:44:06;11.50;99.90
2639;DHT22;1329;51.384;7.122;2023-03-14T07:46:34;11.60;99.90
2639;DHT22;1329;51.384;7.122;2023-03-14T07:49:02;11.60;99.90
2639;DHT22;1329;51.384;7.122;2023-03-14T07:51:37;11.60;99.90
2639;DHT22;1329;51.384;7.122;2023-03-14T07:54:07;11.60;99.90
2639;DHT22;1329;51.384;7.122;2023-03-14T07:56:35;11.60;99.90
2639;DHT22;1329;51.384;7.122;2023-03-14T07:59:02;11.70;99.90
2639;DHT22;1329;51.384;7.122;2023-03-14T08:01:34;11.70;99.90
2639;DHT22;1329;51.384;7.122;2023-03-14T08:04:03;11.70;99.90
2639;DHT22;1329;51.384;7.122;2023-03-14T08:06:36;11.70;99.90
2639;DHT22;1329;51.384;7.122;2023-03-14T08:09:09;11.80;99.90
2639;DHT22;1329;51.384;7.122;2023-03-14T08:11:38;11.80;99.90
2639;DHT22;1329;51.384;7.122;2023-03-14T08:14:09;11.80;99.90
2639;DHT22;1329;51.384;7.122;2023-03-14T08:16:39;11.80;99.90
2639;DHT22;1329;51.384;7.122;2023-03-14T08:19:07;11.80;99.90
2639;DHT22;1329;51.384;7.122;2023-03-14T08:21:36;11.90;99.90
2639;DHT22;1329;51.384;7.122;2023-03-14T08:24:04;11.80;99.90
2639;DHT22;1329;51.384;7.122;2023-03-14T08:26:32;11.90;99.90
2639;DHT22;1329;51.384;7.122;2023-03-14T08:29:01;12.00;99.90
2639;DHT22;1329;51.384;7.122;2023-03-14T08:31:34;12.00;99.90
2639;DHT22;1329;51.384;7.122;2023-03-14T08:34:03;12.00;99.90
2639;DHT22;1329;51.384;7.122;2023-03-14T08:36:33;12.00;99.90
2639;DHT22;1329;51.384;7.122;2023-03-14T08:39:06;12.10;99.90
2639;DHT22;1329;51.384;7.122;2023-03-14T08:41:36;12.10;99.90
2639;DHT22;1329;51.384;7.122;2023-03-14T08:44:07;12.20;99.90
2639;DHT22;1329;51.384;7.122;2023-03-14T08:46:41;12.20;99.90
2639;DHT22;1329;51.384;7.122;2023-03-14T08:49:11;12.30;99.90
2639;DHT22;1329;51.384;7.122;2023-03-14T08:51:40;12.40;99.90
2639;DHT22;1329;51.384;7.122;2023-03-14T08:54:11;12.40;99.90
2639;DHT22;1329;51.384;7.122;2023-03-14T08:56:39;12.40;99.90
2639;DHT22;1329;51.384;7.122;2023-03-14T08:59:10;12.50;99.90
2639;DHT22;1329;51.384;7.122;2023-03-14T09:01:40;12.50;99.90
2639;DHT22;1329;51.384;7.122;2023-03-14T09:04:08;12.60;99.90
2639;DHT22;1329;51.384;7.122;2023-03-14T09:06:36;12.60;99.90
2639;DHT22;1329;51.384;7.122;2023-03-14T09:09:05;12.70;99.90
2639;DHT22;1329;51.384;7.122;2023-03-14T09:11:36;12.70;99.90
2639;DHT22;1329;51.384;7.122;2023-03-14T09:14:04;12.70;99.90
2639;DHT22;1329;51.384;7.122;2023-03-14T09:16:33;12.70;99.90
2639;DHT22;1329;51.384;7.122;2023-03-14T09:19:01;12.70;99.90
2639;DHT22;1329;51.384;7.122;2023-03-14T09:21:35;12.60;99.90
2639;DHT22;1329;51.384;7.122;2023-03-14T09:24:04;12.60;99.90
2639;DHT22;1329;51.384;7.122;2023-03-14T09:26:34;12.60;99.90
2639;DHT22;1329;51.384;7.122;2023-03-14T09:29:04;12.50;99.90
2639;DHT22;1329;51.384;7.122;2023-03-14T09:31:32;12.50;99.90
2639;DHT22;1329;51.384;7.122;2023-03-14T09:34:04;12.40;99.90
2639;DHT22;1329;51.384;7.122;2023-03-14T09:36:33;12.40;99.90
2639;DHT22;1329;51.384;7.122;2023-03-14T09:39:03;12.30;99.90
2639;DHT22;1329;51.384;7.122;2023-03-14T09:41:36;12.20;99.90
2639;DHT22;1329;51.384;7.122;2023-03-14T09:44:10;12.20;99.90
2639;DHT22;1329;51.384;7.122;2023-03-14T09:46:51;12.00;99.90
2639;DHT22;1329;51.384;7.122;2023-03-14T09:49:32;11.90;99.90
2639;DHT22;1329;51.384;7.122;2023-03-14T09:52:10;11.70;99.90
2639;DHT22;1329;51.384;7.122;2023-03-14T09:54:44;11.50;99.90
2639;DHT22;1329;51.384;7.122;2023-03-14T09:57:18;11.40;99.90
2639;DHT22;1329;51.384;7.122;2023-03-14T09:59:52;11.30;99.90
2639;DHT22;1329;51.384;7.122;2023-03-14T10:02:22;11.20;99.90
2639;DHT22;1329;51.384;7.122;2023-03-14T10:04:52;11.10;99.90
2639;DHT22;1329;51.384;7.122;2023-03-14T10:07:25;10.90;99.90
2639;DHT22;1329;51.384;7.122;2023-03-14T10:09:56;10.90;99.90
2639;DHT22;1329;51.384;7.122;2023-03-14T10:12:36;10.80;99.90
2639;DHT22;1329;51.384;7.122;2023-03-14T10:15:07;10.70;99.90
2639;DHT22;1329;51.384;7.122;2023-03-14T10:17:41;10.70;99.90
2639;DHT22;1329;51.384;7.122;2023-03-14T10:20:32;10.60;99.90
2639;DHT22;1329;51.384;7.122;2023-03-14T10:23:06;10.60;99.90
2639;DHT22;1329;51.384;7.122;2023-03-14T10:25:58;10.50;99.90
2639;DHT22;1329;51.384;7.122;2023-03-14T10:28:30;10.50;99.90
2639;DHT22;1329;51.384;7.122;2023-03-14T10:31:00;10.40;99.90
2639;DHT22;1329;51.384;7.122;2023-03-14T10:33:30;10.40;99.90
2639;DHT22;1329;51.384;7.122;2023-03-14T10:36:00;10.40;99.90
2639;DHT22;1329;51.384;7.122;2023-03-14T10:38:31;10.40;99.90
2639;DHT22;1329;51.384;7.122;2023-03-14T10:41:01;10.40;99.90
2639;DHT22;1329;51.384;7.122;2023-03-14T10:43:35;10.30;99.90
2639;DHT22;1329;51.384;7.122;2023-03-14T10:46:08;10.30;99.90
2639;DHT22;1329;51.384;7.122;2023-03-14T10:48:43;10.30;99.90
2639;DHT22;1329;51.384;7.122;2023-03-14T10:51:19;10.20;99.90
2639;DHT22;1329;51.384;7.122;2023-03-14T10:53:57;10.20;99.90
2639;DHT22;1329;51.384;7.122;2023-03-14T10:56:35;10.20;99.90
2639;DHT22;1329;51.384;7.122;2023-03-14T10:59:11;10.10;99.90
2639;DHT22;1329;51.384;7.122;2023-03-14T11:01:44;10.00;99.90
2639;DHT22;1329;51.384;7.122;2023-03-14T11:04:38;9.90;99.90
2639;DHT22;1329;51.384;7.122;2023-03-14T11:07:20;9.90;99.90
2639;DHT22;1329;51.384;7.122;2023-03-14T11:09:56;9.80;99.90
2639;DHT22;1329;51.384;7.122;2023-03-14T11:12:39;9.70;99.90
2639;DHT22;1329;51.384;7.122;2023-03-14T11:15:17;9.70;99.90
2639;DHT22;1329;51.384;7.122;2023-03-14T11:17:58;9.60;99.90
2639;DHT22;1329;51.384;7.122;2023-03-14T11:20:44;9.60;99.90
2639;DHT22;1329;51.384;7.122;2023-03-14T11:23:20;9.50;99.90
2639;DHT22;1329;51.384;7.122;2023-03-14T11:25:58;9.50;99.90
2639;DHT22;1329;51.384;7.122;2023-03-14T11:28:49;9.50;99.90
2639;DHT22;1329;51.384;7.122;2023-03-14T11:31:26;9.50;99.90
2639;DHT22;1329;51.384;7.122;2023-03-14T11:34:01;9.50;99.90
2639;DHT22;1329;51.384;7.122;2023-03-14T11:36:39;9.50;99.90
2639;DHT22;1329;51.384;7.122;2023-03-14T11:39:14;9.60;99.90
2639;DHT22;1329;51.384;7.122;2023-03-14T11:41:45;9.60;99.90
2639;DHT22;1329;51.384;7.122;2023-03-14T11:44:18;9.50;99.90
2639;DHT22;1329;51.384;7.122;2023-03-14T11:46:52;9.50;99.90
2639;DHT22;1329;51.384;7.122;2023-03-14T11:49:30;9.50;99.90
2639;DHT22;1329;51.384;7.122;2023-03-14T11:52:09;9.40;99.90
2639;DHT22;1329;51.384;7.122;2023-03-14T11:54:46;9.40;99.90
2639;DHT22;1329;51.384;7.122;2023-03-14T11:57:18;9.40;99.90
2639;DHT22;1329;51.384;7.122;2023-03-14T11:59:51;9.40;99.90
2639;DHT22;1329;51.384;7.122;2023-03-14T12:02:27;9.30;99.90
2639;DHT22;1329;51.384;7.122;2023-03-14T12:05:44;9.30;99.90
2639;DHT22;1329;51.384;7.122;2023-03-14T12:11:17;9.20;99.90
2639;DHT22;1329;51.384;7.122;2023-03-14T12:13:50;9.10;99.90
2639;DHT22;1329;51.384;7.122;2023-03-14T12:16:43;9.10;99.90
2639;DHT22;1329;51.384;7.122;2023-03-14T12:19:30;9.00;99.90
2639;DHT22;1329;51.384;7.122;2023-03-14T12:22:21;9.00;99.90
2639;DHT22;1329;51.384;7.122;2023-03-14T12:25:01;9.00;99.90
2639;DHT22;1329;51.384;7.122;2023-03-14T12:30:47;9.00;99.90
2639;DHT22;1329;51.384;7.122;2023-03-14T12:33:30;9.10;99.90
2639;DHT22;1329;51.384;7.122;2023-03-14T12:36:18;9.10;99.90
2639;DHT22;1329;51.384;7.122;2023-03-14T12:39:20;9.20;99.90
2639;DHT22;1329;51.384;7.122;2023-03-14T12:41:53;9.20;99.90
2639;DHT22;1329;51.384;7.122;2023-03-14T12:44:43;9.30;99.90
2639;DHT22;1329;51.384;7.122;2023-03-14T12:47:50;9.50;99.90
2639;DHT22;1329;51.384;7.122;2023-03-14T12:50:28;9.60;99.90
2639;DHT22;1329;51.384;7.122;2023-03-14T12:56:48;9.80;99.90
2639;DHT22;1329;51.384;7.122;2023-03-14T12:59:34;9.80;99.90
2639;DHT22;1329;51.384;7.122;2023-03-14T13:02:23;9.80;99.90
2639;DHT22;1329;51.384;7.122;2023-03-14T13:05:04;9.80;99.90
2639;DHT22;1329;51.384;7.122;2023-03-14T13:08:04;9.70;99.90
2639;DHT22;1329;51.384;7.122;2023-03-14T13:10:45;9.60;99.90
2639;DHT22;1329;51.384;7.122;2023-03-14T13:13:29;9.40;99.90
2639;DHT22;1329;51.384;7.122;2023-03-14T13:16:03;9.30;99.90
2639;DHT22;1329;51.384;7.122;2023-03-14T13:18:36;9.10;99.90
2639;DHT22;1329;51.384;7.122;2023-03-14T13:21:09;8.90;99.90
2639;DHT22;1329;51.384;7.122;2023-03-14T13:23:57;8.80;99.90
2639;DHT22;1329;51.384;7.122;2023-03-14T13:26:40;8.70;99.90
2639;DHT22;1329;51.384;7.122;2023-03-14T13:29:24;8.60;99.90
2639;DHT22;1329;51.384;7.122;2023-03-14T13:31:56;8.60;99.90
2639;DHT22;1329;51.384;7.122;2023-03-14T13:34:29;8.60;99.90
2639;DHT22;1329;51.384;7.122;2023-03-14T13:37:00;8.60;99.90
2639;DHT22;1329;51.384;7.122;2023-03-14T13:39:32;8.70;99.90
2639;DHT22;1329;51.384;7.122;2023-03-14T13:42:03;8.70;99.90
2639;DHT22;1329;51.384;7.122;2023-03-14T13:44:35;8.70;99.90
2639;DHT22;1329;51.384;7.122;2023-03-14T13:47:09;8.80;99.90
2639;DHT22;1329;51.384;7.122;2023-03-14T13:49:39;8.80;99.90
2639;DHT22;1329;51.384;7.122;2023-03-14T13:52:22;8.90;99.90
2639;DHT22;1329;51.384;7.122;2023-03-14T13:54:54;8.90;99.90
2639;DHT22;1329;51.384;7.122;2023-03-14T13:57:22;9.00;99.90
2639;DHT22;1329;51.384;7.122;2023-03-14T14:00:02;9.10;99.90
2639;DHT22;1329;51.384;7.122;2023-03-14T14:02:39;9.10;99.90
2639;DHT22;1329;51.384;7.122;2023-03-14T14:05:11;9.10;99.90
2639;DHT22;1329;51.384;7.122;2023-03-14T14:07:39;9.10;99.90
2639;DHT22;1329;51.384;7.122;2023-03-14T14:10:10;9.10;99.90
2639;DHT22;1329;51.384;7.122;2023-03-14T14:12:42;9.10;99.90
2639;DHT22;1329;51.384;7.122;2023-03-14T14:15:21;9.10;99.90
2639;DHT22;1329;51.384;7.122;2023-03-14T14:17:57;9.10;99.90
2639;DHT22;1329;51.384;7.122;2023-03-14T14:20:30;9.10;99.90
2639;DHT22;1329;51.384;7.122;2023-03-14T14:23:02;9.20;99.90
2639;DHT22;1329;51.384;7.122;2023-03-14T14:25:32;9.30;99.90
2639;DHT22;1329;51.384;7.122;2023-03-14T14:28:14;9.40;99.90
2639;DHT22;1329;51.384;7.122;2023-03-14T14:30:44;9.50;99.90
2639;DHT22;1329;51.384;7.122;2023-03-14T14:33:21;9.50;99.90
2639;DHT22;1329;51.384;7.122;2023-03-14T14:35:54;9.50;99.90
2639;DHT22;1329;51.384;7.122;2023-03-14T14:38:22;9.60;99.90
2639;DHT22;1329;51.384;7.122;2023-03-14T14:40:53;9.70;99.90
2639;DHT22;1329;51.384;7.122;2023-03-14T14:43:26;9.70;99.90
2639;DHT22;1329;51.384;7.122;2023-03-14T14:45:57;9.80;99.90
2639;DHT22;1329;51.384;7.122;2023-03-14T14:48:26;9.80;99.90
2639;DHT22;1329;51.384;7.122;2023-03-14T14:50:58;9.80;99.90
2639;DHT22;1329;51.384;7.122;2023-03-14T14:53:30;9.80;99.90
2639;DHT22;1329;51.384;7.122;2023-03-14T14:56:04;9.80;99.90
2639;DHT22;1329;51.384;7.122;2023-03-14T14:58:35;9.70;99.90
2639;DHT22;1329;51.384;7.122;2023-03-14T15:01:10;9.70;99.90
2639;DHT22;1329;51.384;7.122;2023-03-14T15:03:42;9.60;99.90
2639;DHT22;1329;51.384;7.122;2023-03-14T15:06:13;9.60;99.90
2639;DHT22;1329;51.384;7.122;2023-03-14T15:08:43;9.50;99.90
2639;DHT22;1329;51.384;7.122;2023-03-14T15:11:16;9.40;99.90
2639;DHT22;1329;51.384;7.122;2023-03-14T15:13:45;9.40;99.90
2639;DHT22;1329;51.384;7.122;2023-03-14T15:16:17;9.40;99.90
2639;DHT22;1329;51.384;7.122;2023-03-14T15:18:53;9.30;99.90
2639;DHT22;1329;51.384;7.122;2023-03-14T15:21:25;9.30;99.90
2639;DHT22;1329;51.384;7.122;2023-03-14T15:23:54;9.30;99.90
2639;DHT22;1329;51.384;7.122;2023-03-14T15:26:23;9.30;99.90
2639;DHT22;1329;51.384;7.122;2023-03-14T15:28:51;9.30;99.90
2639;DHT22;1329;51.384;7.122;2023-03-14T15:31:24;9.40;99.90
2639;DHT22;1329;51.384;7.122;2023-03-14T15:33:54;9.40;99.90
2639;DHT22;1329;51.384;7.122;2023-03-14T15:36:24;9.50;99.90
2639;DHT22;1329;51.384;7.122;2023-03-14T15:38:54;9.50;99.90
2639;DHT22;1329;51.384;7.122;2023-03-14T15:41:22;9.60;99.90
2639;DHT22;1329;51.384;7.122;2023-03-14T15:43:49;9.60;99.90
2639;DHT22;1329;51.384;7.122;2023-03-14T15:46:18;9.60;99.90
2639;DHT22;1329;51.384;7.122;2023-03-14T15:48:47;9.60;99.90
2639;DHT22;1329;51.384;7.122;2023-03-14T15:51:15;9.50;99.90
2639;DHT22;1329;51.384;7.122;2023-03-14T15:53:43;9.40;99.90
2639;DHT22;1329;51.384;7.122;2023-03-14T15:56:12;9.40;99.90
2639;DHT22;1329;51.384;7.122;2023-03-14T15:58:40;9.30;99.90
2639;DHT22;1329;51.384;7.122;2023-03-14T16:01:12;9.20;99.90
2639;DHT22;1329;51.384;7.122;2023-03-14T16:03:44;9.10;99.90
2639;DHT22;1329;51.384;7.122;2023-03-14T16:06:27;9.10;99.90
2639;DHT22;1329;51.384;7.122;2023-03-14T16:08:56;9.00;99.90
2639;DHT22;1329;51.384;7.122;2023-03-14T16:11:29;8.90;99.90
2639;DHT22;1329;51.384;7.122;2023-03-14T16:13:56;8.90;99.90
2639;DHT22;1329;51.384;7.122;2023-03-14T16:16:23;8.80;99.90
2639;DHT22;1329;51.384;7.122;2023-03-14T16:18:58;8.80;99.90
2639;DHT22;1329;51.384;7.122;2023-03-14T16:21:26;8.80;99.90
2639;DHT22;1329;51.384;7.122;2023-03-14T16:23:53;8.70;99.90
2639;DHT22;1329;51.384;7.122;2023-03-14T16:26:20;8.70;99.90
2639;DHT22;1329;51.384;7.122;2023-03-14T16:28:50;8.70;99.90
2639;DHT22;1329;51.384;7.122;2023-03-14T16:31:19;8.70;99.90
2639;DHT22;1329;51.384;7.122;2023-03-14T16:33:50;8.70;99.90
2639;DHT22;1329;51.384;7.122;2023-03-14T16:36:34;8.70;99.90
2639;DHT22;1329;51.384;7.122;2023-03-14T16:39:02;8.70;99.90
2639;DHT22;1329;51.384;7.122;2023-03-14T16:41:35;8.60;99.90
2639;DHT22;1329;51.384;7.122;2023-03-14T16:44:32;8.60;99.90
2639;DHT22;1329;51.384;7.122;2023-03-14T16:47:04;8.60;99.90
2639;DHT22;1329;51.384;7.122;2023-03-14T16:49:31;8.60;99.90
2639;DHT22;1329;51.384;7.122;2023-03-14T16:52:01;8.60;99.90
2639;DHT22;1329;51.384;7.122;2023-03-14T16:54:34;8.60;99.90